Time;durP1;ratioP1;P1;durP2;ratioP2;P2;SDS_P1;SDS_P2;PMS_P1;PMS_P2;Temp;Humidity;BMP_temperature;BMP_pressure;BME280_temperature;BME280_humidity;BME280_pressure;Samples;Min_cycle;Max_cycle;Signal;HPM_P1;HPM_P2
2023/05/06 00:02:06;;;;;;;2.65;1.65;;;;;;;;;;5085048;28;20031;-68
2023/05/06 00:04:31;;;;;;;4.05;2.10;;;;;;;;;;5086299;28;20035;-69
2023/05/06 00:06:56;;;;;;;2.15;1.70;;;;;;;;;;5084908;28;20040;-70
2023/05/06 00:09:25;;;;;;;3.30;1.90;;;;;;;;;;5070123;28;20031;-70
2023/05/06 00:11:50;;;;;;;2.85;1.83;;;;;;;;;;5085358;28;20036;-69
2023/05/06 00:14:16;;;;;;;3.30;1.95;;;;;;;;;;5085002;28;20039;-69
2023/05/06 00:16:41;;;;;;;3.03;1.77;;;;;;;;;;5075779;28;20447;-70
2023/05/06 00:19:07;;;;;;;3.28;1.67;;;;;;;;;;5078916;28;20040;-69
2023/05/06 00:21:32;;;;;;;2.58;1.80;;;;;;;;;;5087013;28;20019;-69
2023/05/06 00:23:58;;;;;;;2.20;1.90;;;;;;;;;;5088056;28;20024;-69
2023/05/06 00:26:23;;;;;;;2.58;1.77;;;;;;;;;;5089725;28;20517;-69
2023/05/06 00:28:48;;;;;;;2.95;1.90;;;;;;;;;;5086250;28;20029;-69
2023/05/06 00:31:14;;;;;;;3.35;1.88;;;;;;;;;;5086962;28;20038;-70
2023/05/06 00:33:40;;;;;;;2.45;1.83;;;;;;;;;;5086540;28;20023;-70
2023/05/06 00:36:05;;;;;;;3.35;1.98;;;;;;;;;;5087106;28;20048;-69
2023/05/06 00:38:31;;;;;;;3.90;2.22;;;;;;;;;;5080137;28;20056;-69
2023/05/06 00:40:56;;;;;;;3.25;1.73;;;;;;;;;;5079636;28;20028;-69
2023/05/06 00:43:21;;;;;;;3.08;2.13;;;;;;;;;;5086477;28;20024;-69
2023/05/06 00:45:47;;;;;;;6.78;2.42;;;;;;;;;;5084769;28;20175;-69
2023/05/06 00:48:14;;;;;;;2.80;2.13;;;;;;;;;;5086790;28;20762;-70
2023/05/06 00:50:40;;;;;;;3.65;1.52;;;;;;;;;;5084313;28;20172;-70
2023/05/06 00:53:08;;;;;;;2.78;2.00;;;;;;;;;;5085486;28;20646;-70
2023/05/06 00:55:34;;;;;;;2.67;1.80;;;;;;;;;;5086439;28;20071;-70
2023/05/06 00:57:59;;;;;;;2.75;2.05;;;;;;;;;;5084753;28;20028;-70
2023/05/06 01:00:25;;;;;;;2.53;1.85;;;;;;;;;;5085992;28;20050;-69
2023/05/06 01:02:51;;;;;;;3.35;2.03;;;;;;;;;;5086037;28;20048;-70
2023/05/06 01:05:19;;;;;;;3.22;2.10;;;;;;;;;;5084074;28;20047;-69
2023/05/06 01:08:06;;;;;;;3.00;2.08;;;;;;;;;;5082624;28;20078;-69
2023/05/06 01:10:52;;;;;;;2.75;2.00;;;;;;;;;;5086407;28;20036;-70
2023/05/06 01:13:29;;;;;;;3.10;2.10;;;;;;;;;;5080016;28;20047;-70
2023/05/06 01:15:56;;;;;;;3.70;2.05;;;;;;;;;;5084163;28;20040;-70
2023/05/06 01:18:25;;;;;;;3.13;2.10;;;;;;;;;;5085770;28;20016;-69
2023/05/06 01:20:53;;;;;;;3.88;2.22;;;;;;;;;;5074748;28;20552;-69
2023/05/06 01:23:19;;;;;;;3.60;2.00;;;;;;;;;;5089061;28;20083;-69
2023/05/06 01:25:44;;;;;;;2.53;1.83;;;;;;;;;;5087631;28;20090;-69
2023/05/06 01:28:11;;;;;;;3.63;1.88;;;;;;;;;;5089483;28;20093;-70
2023/05/06 01:30:47;;;;;;;2.30;1.75;;;;;;;;;;5088003;28;20024;-69
2023/05/06 01:33:19;;;;;;;3.20;1.77;;;;;;;;;;5090272;28;20043;-70
2023/05/06 01:36:07;;;;;;;2.90;1.75;;;;;;;;;;5090361;28;20062;-70
2023/05/06 01:38:50;;;;;;;3.75;1.80;;;;;;;;;;5082868;28;20062;-70
2023/05/06 01:41:17;;;;;;;2.88;1.80;;;;;;;;;;5084661;28;20044;-70
2023/05/06 01:43:46;;;;;;;3.03;1.95;;;;;;;;;;5087763;28;20105;-70
2023/05/06 01:46:15;;;;;;;4.03;2.13;;;;;;;;;;5089035;28;20055;-70
2023/05/06 01:48:41;;;;;;;4.85;2.20;;;;;;;;;;5090050;28;20107;-70
2023/05/06 01:51:07;;;;;;;3.20;2.20;;;;;;;;;;5090635;28;20016;-70
2023/05/06 01:53:32;;;;;;;3.78;2.25;;;;;;;;;;5081344;28;20639;-70
2023/05/06 01:55:58;;;;;;;2.85;2.03;;;;;;;;;;5087607;28;20039;-69
2023/05/06 01:58:23;;;;;;;3.33;1.85;;;;;;;;;;5086903;28;20116;-69
2023/05/06 02:00:48;;;;;;;4.28;2.17;;;;;;;;;;5082116;28;20040;-69
2023/05/06 02:03:14;;;;;;;3.55;2.17;;;;;;;;;;5089225;28;20027;-69
2023/05/06 02:05:39;;;;;;;3.97;1.80;;;;;;;;;;5089247;28;20032;-69
2023/05/06 02:08:04;;;;;;;3.55;2.10;;;;;;;;;;5089274;28;20117;-69
2023/05/06 02:10:30;;;;;;;4.93;2.10;;;;;;;;;;5072806;28;20037;-70
2023/05/06 02:12:55;;;;;;;3.28;2.05;;;;;;;;;;5083051;28;20115;-69
2023/05/06 02:15:21;;;;;;;4.28;1.85;;;;;;;;;;5089588;28;20032;-69
2023/05/06 02:17:46;;;;;;;2.90;1.90;;;;;;;;;;5086827;28;20509;-69
2023/05/06 02:20:12;;;;;;;2.88;2.03;;;;;;;;;;5089206;28;20047;-69
2023/05/06 02:22:37;;;;;;;5.32;2.00;;;;;;;;;;5084945;28;20029;-70
2023/05/06 02:25:02;;;;;;;4.25;2.17;;;;;;;;;;5079679;28;20070;-69
2023/05/06 02:27:28;;;;;;;2.70;1.85;;;;;;;;;;5088543;28;20031;-69
2023/05/06 02:29:54;;;;;;;3.67;2.00;;;;;;;;;;5087108;28;20028;-69
2023/05/06 02:32:19;;;;;;;3.17;2.03;;;;;;;;;;5088830;28;20030;-70
2023/05/06 02:34:44;;;;;;;3.50;1.70;;;;;;;;;;5087453;28;20563;-70
2023/05/06 02:37:10;;;;;;;4.97;2.00;;;;;;;;;;5087094;28;20560;-69
2023/05/06 02:39:35;;;;;;;3.58;2.20;;;;;;;;;;5075130;28;20032;-68
2023/05/06 02:42:01;;;;;;;3.03;2.05;;;;;;;;;;5086724;28;20024;-69
2023/05/06 02:44:27;;;;;;;3.50;2.20;;;;;;;;;;5088313;28;20516;-69
2023/05/06 02:46:52;;;;;;;4.75;2.15;;;;;;;;;;5088320;28;20035;-70
2023/05/06 02:49:17;;;;;;;5.18;1.98;;;;;;;;;;5087671;28;20060;-70
2023/05/06 02:51:43;;;;;;;5.13;2.60;;;;;;;;;;5087641;28;20028;-69
2023/05/06 02:54:08;;;;;;;3.97;2.10;;;;;;;;;;5085913;28;20062;-70
2023/05/06 02:56:34;;;;;;;4.82;2.22;;;;;;;;;;5084976;28;20509;-69
2023/05/06 02:59:00;;;;;;;3.55;2.25;;;;;;;;;;5087497;28;20488;-69
2023/05/06 03:01:25;;;;;;;2.60;2.10;;;;;;;;;;5084711;28;20071;-69
2023/05/06 03:03:51;;;;;;;3.70;2.20;;;;;;;;;;5088433;28;20528;-70
2023/05/06 03:06:16;;;;;;;4.97;2.38;;;;;;;;;;5081777;28;20024;-70
2023/05/06 03:08:41;;;;;;;4.40;2.30;;;;;;;;;;5086963;28;20040;-69
2023/05/06 03:11:07;;;;;;;3.38;2.10;;;;;;;;;;5087027;28;20413;-69
2023/05/06 03:13:32;;;;;;;3.50;2.17;;;;;;;;;;5087462;28;20556;-69
2023/05/06 03:15:57;;;;;;;3.40;2.10;;;;;;;;;;5087818;28;20040;-69
2023/05/06 03:18:23;;;;;;;3.35;1.98;;;;;;;;;;5088049;28;20032;-69
2023/05/06 03:20:48;;;;;;;2.90;1.92;;;;;;;;;;5086845;28;20040;-69
2023/05/06 03:23:13;;;;;;;6.93;2.17;;;;;;;;;;5086083;28;20039;-69
2023/05/06 03:25:39;;;;;;;3.10;2.00;;;;;;;;;;5086045;28;20051;-69
2023/05/06 03:28:05;;;;;;;2.95;2.20;;;;;;;;;;5086310;28;20040;-69
2023/05/06 03:30:30;;;;;;;3.58;2.35;;;;;;;;;;5088153;28;20024;-70
2023/05/06 03:32:59;;;;;;;4.50;2.05;;;;;;;;;;5087987;28;20035;-69
2023/05/06 03:35:25;;;;;;;4.43;2.00;;;;;;;;;;5084767;28;20501;-69
2023/05/06 03:37:50;;;;;;;3.67;2.30;;;;;;;;;;5087958;28;20047;-69
2023/05/06 03:40:15;;;;;;;3.38;2.22;;;;;;;;;;5085040;28;20071;-70
2023/05/06 03:42:41;;;;;;;3.95;2.60;;;;;;;;;;5085825;28;20032;-70
2023/05/06 03:45:06;;;;;;;2.95;2.25;;;;;;;;;;5087827;28;20165;-69
2023/05/06 03:47:32;;;;;;;3.88;2.50;;;;;;;;;;5086546;28;20051;-69
2023/05/06 03:49:58;;;;;;;4.78;2.97;;;;;;;;;;5087462;28;20036;-69
2023/05/06 03:52:23;;;;;;;3.78;2.50;;;;;;;;;;5087046;28;20040;-69
2023/05/06 03:54:48;;;;;;;4.47;2.80;;;;;;;;;;5086998;28;20043;-70
2023/05/06 03:57:14;;;;;;;6.20;2.60;;;;;;;;;;5087384;28;20119;-69
2023/05/06 03:59:39;;;;;;;8.13;2.80;;;;;;;;;;5087272;28;20129;-69
2023/05/06 04:02:05;;;;;;;5.28;2.67;;;;;;;;;;5077387;28;20036;-69
2023/05/06 04:04:30;;;;;;;4.78;2.65;;;;;;;;;;5085957;28;20085;-70
2023/05/06 04:06:55;;;;;;;5.43;3.15;;;;;;;;;;5085587;28;20075;-70
2023/05/06 04:09:21;;;;;;;5.25;2.60;;;;;;;;;;5088043;28;20052;-70
2023/05/06 04:11:46;;;;;;;5.47;3.05;;;;;;;;;;5085361;28;20532;-70
2023/05/06 04:14:12;;;;;;;5.78;2.90;;;;;;;;;;5086746;28;20123;-69
2023/05/06 04:16:37;;;;;;;4.70;2.92;;;;;;;;;;5087263;28;20032;-69
2023/05/06 04:19:02;;;;;;;7.85;3.20;;;;;;;;;;5084785;28;20038;-69
2023/05/06 04:21:28;;;;;;;5.03;2.78;;;;;;;;;;5087564;28;20058;-69
2023/05/06 04:23:54;;;;;;;4.95;2.65;;;;;;;;;;5085255;28;20046;-70
2023/05/06 04:26:20;;;;;;;6.93;2.53;;;;;;;;;;5084902;28;20028;-69
2023/05/06 04:28:45;;;;;;;5.07;3.00;;;;;;;;;;5087308;28;20535;-70
2023/05/06 04:31:13;;;;;;;4.50;2.80;;;;;;;;;;5085249;28;20039;-69
2023/05/06 04:33:39;;;;;;;5.53;2.83;;;;;;;;;;5067711;28;20023;-69
2023/05/06 04:36:05;;;;;;;5.65;3.13;;;;;;;;;;5087908;28;20016;-69
2023/05/06 04:38:31;;;;;;;4.60;2.90;;;;;;;;;;5081705;28;20054;-70
2023/05/06 04:40:57;;;;;;;5.57;2.90;;;;;;;;;;5079730;28;20126;-69
2023/05/06 04:43:23;;;;;;;4.82;2.63;;;;;;;;;;5084717;28;20118;-70
2023/05/06 04:45:49;;;;;;;7.75;2.63;;;;;;;;;;5085133;28;20048;-69
2023/05/06 04:48:18;;;;;;;5.40;3.20;;;;;;;;;;5085330;28;20031;-69
2023/05/06 04:50:44;;;;;;;4.80;2.72;;;;;;;;;;5086225;28;20754;-70
2023/05/06 04:53:10;;;;;;;4.65;2.80;;;;;;;;;;5085441;28;20032;-69
2023/05/06 04:55:35;;;;;;;5.82;3.35;;;;;;;;;;5086813;28;20040;-70
2023/05/06 04:58:00;;;;;;;5.10;2.92;;;;;;;;;;5087066;28;20048;-70
2023/05/06 05:00:26;;;;;;;4.70;3.20;;;;;;;;;;5091174;28;20142;-69
2023/05/06 05:02:52;;;;;;;4.88;2.70;;;;;;;;;;5087997;28;20040;-70
2023/05/06 05:05:18;;;;;;;4.63;2.53;;;;;;;;;;5089478;28;20032;-69
2023/05/06 05:07:43;;;;;;;5.53;2.70;;;;;;;;;;5075581;28;20105;-70
2023/05/06 05:10:09;;;;;;;4.70;3.25;;;;;;;;;;5090950;28;20039;-70
2023/05/06 05:12:35;;;;;;;4.43;3.00;;;;;;;;;;5088722;28;20646;-69
2023/05/06 05:15:00;;;;;;;9.63;3.30;;;;;;;;;;5089684;28;20032;-70
2023/05/06 05:17:25;;;;;;;5.03;3.33;;;;;;;;;;5089002;28;20509;-70
2023/05/06 05:19:51;;;;;;;6.10;3.33;;;;;;;;;;5090301;28;20076;-70
2023/05/06 05:22:17;;;;;;;5.25;3.10;;;;;;;;;;5089503;28;20055;-69
2023/05/06 05:24:42;;;;;;;6.13;2.90;;;;;;;;;;5090309;28;20550;-70
2023/05/06 05:27:08;;;;;;;5.03;3.03;;;;;;;;;;5089760;28;20024;-69
2023/05/06 05:29:33;;;;;;;4.93;3.05;;;;;;;;;;5089271;28;20079;-69
2023/05/06 05:31:59;;;;;;;4.93;3.20;;;;;;;;;;5088561;28;20086;-70
2023/05/06 05:34:24;;;;;;;5.45;3.20;;;;;;;;;;5089783;28;20035;-70
2023/05/06 05:36:50;;;;;;;8.07;3.13;;;;;;;;;;5088396;28;20055;-70
2023/05/06 05:39:15;;;;;;;5.50;2.85;;;;;;;;;;5077318;28;20028;-69
2023/05/06 05:41:40;;;;;;;5.35;3.25;;;;;;;;;;5088543;28;20145;-69
2023/05/06 05:44:06;;;;;;;4.45;3.10;;;;;;;;;;5088246;28;20067;-69
2023/05/06 05:46:31;;;;;;;5.43;3.40;;;;;;;;;;5089307;28;20401;-70
2023/05/06 05:48:56;;;;;;;4.43;3.25;;;;;;;;;;5089282;28;20390;-69
2023/05/06 05:51:22;;;;;;;6.63;3.20;;;;;;;;;;5089185;28;20055;-69
2023/05/06 05:53:47;;;;;;;7.00;3.35;;;;;;;;;;5086237;28;20569;-69
2023/05/06 05:56:12;;;;;;;5.30;3.50;;;;;;;;;;5086209;28;20028;-70
2023/05/06 05:58:38;;;;;;;6.82;3.10;;;;;;;;;;5089028;28;20036;-70
2023/05/06 06:01:04;;;;;;;4.18;3.20;;;;;;;;;;5089724;28;20038;-70
2023/05/06 06:03:29;;;;;;;5.28;3.40;;;;;;;;;;5090316;28;20035;-69
2023/05/06 06:05:54;;;;;;;7.10;3.65;;;;;;;;;;5089892;28;20123;-70
2023/05/06 06:08:20;;;;;;;6.55;3.65;;;;;;;;;;5074224;28;20048;-70
2023/05/06 06:10:46;;;;;;;5.70;3.17;;;;;;;;;;5076353;28;20050;-70
2023/05/06 06:13:12;;;;;;;9.27;3.20;;;;;;;;;;5086557;28;20532;-70
2023/05/06 06:15:37;;;;;;;8.32;3.50;;;;;;;;;;5088048;28;20077;-69
2023/05/06 06:18:03;;;;;;;4.68;2.92;;;;;;;;;;5089381;28;20099;-69
2023/05/06 06:20:28;;;;;;;6.43;3.15;;;;;;;;;;5081852;28;20035;-69
2023/05/06 06:22:53;;;;;;;5.18;3.08;;;;;;;;;;5070751;28;20051;-70
2023/05/06 06:25:20;;;;;;;5.05;3.30;;;;;;;;;;5084475;28;20454;-69
2023/05/06 06:27:45;;;;;;;5.03;3.33;;;;;;;;;;5088561;28;20042;-69
2023/05/06 06:30:14;;;;;;;6.28;3.15;;;;;;;;;;5076570;28;20758;-69
2023/05/06 06:32:50;;;;;;;5.35;2.90;;;;;;;;;;5081204;28;20100;-70
2023/05/06 06:35:16;;;;;;;8.65;3.35;;;;;;;;;;5087947;28;20051;-70
2023/05/06 06:37:41;;;;;;;4.70;3.22;;;;;;;;;;5087178;28;20032;-69
2023/05/06 06:40:09;;;;;;;5.57;3.50;;;;;;;;;;5071948;28;20040;-69
2023/05/06 06:42:34;;;;;;;6.10;3.30;;;;;;;;;;5069937;28;20043;-70
2023/05/06 06:45:00;;;;;;;5.95;3.75;;;;;;;;;;5068039;28;20028;-69
2023/05/06 06:47:26;;;;;;;5.30;3.47;;;;;;;;;;5080815;28;20032;-70
2023/05/06 06:49:51;;;;;;;5.75;3.50;;;;;;;;;;5085788;28;20024;-69
2023/05/06 06:52:16;;;;;;;4.32;3.05;;;;;;;;;;5084120;28;20487;-70
2023/05/06 06:54:42;;;;;;;4.82;3.22;;;;;;;;;;5086470;28;20016;-70
2023/05/06 06:57:07;;;;;;;5.93;3.38;;;;;;;;;;5086397;28;20016;-70
2023/05/06 06:59:32;;;;;;;8.98;4.10;;;;;;;;;;5074429;28;20093;-69
2023/05/06 07:01:58;;;;;;;7.72;3.85;;;;;;;;;;5077141;28;20954;-68
2023/05/06 07:04:24;;;;;;;6.93;3.88;;;;;;;;;;5086226;28;20272;-70
2023/05/06 07:06:50;;;;;;;6.40;4.20;;;;;;;;;;5085738;28;20044;-69
2023/05/06 07:09:15;;;;;;;5.90;3.60;;;;;;;;;;5070232;28;20031;-70
2023/05/06 07:11:41;;;;;;;5.82;3.80;;;;;;;;;;5085670;28;20028;-69
2023/05/06 07:14:07;;;;;;;7.40;3.88;;;;;;;;;;5080222;28;20039;-69
2023/05/06 07:16:32;;;;;;;6.30;3.90;;;;;;;;;;5081744;28;20036;-69
2023/05/06 07:18:57;;;;;;;11.63;4.30;;;;;;;;;;5066836;28;20044;-69
2023/05/06 07:21:23;;;;;;;7.95;4.10;;;;;;;;;;5055974;28;20050;-69
2023/05/06 07:23:48;;;;;;;6.88;3.90;;;;;;;;;;5072012;28;20207;-70
2023/05/06 07:26:13;;;;;;;6.68;3.60;;;;;;;;;;5070633;28;20040;-70
2023/05/06 07:28:39;;;;;;;7.85;4.28;;;;;;;;;;5066665;28;20097;-70
2023/05/06 07:31:05;;;;;;;8.07;4.15;;;;;;;;;;5060000;28;20553;-69
2023/05/06 07:33:30;;;;;;;10.85;4.63;;;;;;;;;;5075951;28;20035;-69
2023/05/06 07:35:55;;;;;;;7.28;4.30;;;;;;;;;;5060813;28;20074;-70
2023/05/06 07:38:22;;;;;;;10.25;4.00;;;;;;;;;;5062154;28;20076;-70
2023/05/06 07:40:48;;;;;;;10.98;4.13;;;;;;;;;;5065100;28;20038;-69
2023/05/06 07:43:14;;;;;;;6.78;4.43;;;;;;;;;;5077958;28;20134;-69
2023/05/06 07:45:39;;;;;;;6.85;3.70;;;;;;;;;;5078255;28;20107;-69
2023/05/06 07:48:05;;;;;;;5.60;3.80;;;;;;;;;;5080847;28;20500;-69
2023/05/06 07:50:30;;;;;;;6.47;4.00;;;;;;;;;;5063122;28;20043;-69
2023/05/06 07:52:56;;;;;;;5.80;3.25;;;;;;;;;;5068371;28;20043;-69
2023/05/06 07:55:22;;;;;;;5.97;3.47;;;;;;;;;;5059704;28;20051;-69
2023/05/06 07:57:48;;;;;;;6.07;3.53;;;;;;;;;;5073948;28;20032;-70
2023/05/06 08:00:14;;;;;;;6.95;3.58;;;;;;;;;;5071271;28;20112;-70
2023/05/06 08:02:43;;;;;;;5.78;3.47;;;;;;;;;;5064036;28;20018;-70
2023/05/06 08:05:09;;;;;;;8.35;3.75;;;;;;;;;;5068414;28;20047;-70
2023/05/06 08:07:35;;;;;;;6.78;3.75;;;;;;;;;;5070619;28;20036;-69
2023/05/06 08:10:01;;;;;;;5.50;3.38;;;;;;;;;;5068936;28;20517;-69
2023/05/06 08:12:26;;;;;;;7.60;3.78;;;;;;;;;;5067639;28;20476;-70
2023/05/06 08:14:53;;;;;;;7.05;3.65;;;;;;;;;;5067671;28;20157;-69
2023/05/06 08:17:19;;;;;;;7.85;3.65;;;;;;;;;;5060714;28;20072;-69
2023/05/06 08:19:44;;;;;;;8.27;3.83;;;;;;;;;;5052543;28;20221;-68
2023/05/06 08:22:10;;;;;;;4.32;2.80;;;;;;;;;;5063205;28;20048;-68
2023/05/06 08:24:36;;;;;;;9.40;3.92;;;;;;;;;;5067725;28;20036;-68
2023/05/06 08:27:02;;;;;;;6.47;3.50;;;;;;;;;;5074688;28;20075;-68
2023/05/06 08:29:27;;;;;;;6.97;3.70;;;;;;;;;;5078443;28;20553;-69
2023/05/06 08:31:53;;;;;;;7.05;3.50;;;;;;;;;;5073264;28;20600;-69
2023/05/06 08:34:20;;;;;;;5.35;3.03;;;;;;;;;;5076178;28;20044;-68
2023/05/06 08:36:47;;;;;;;6.35;2.90;;;;;;;;;;5071929;28;20113;-69
2023/05/06 08:39:13;;;;;;;5.10;3.20;;;;;;;;;;5074600;28;20093;-68
2023/05/06 08:41:40;;;;;;;5.82;2.75;;;;;;;;;;5083496;28;20024;-68
2023/05/06 08:44:06;;;;;;;6.45;2.90;;;;;;;;;;5077006;28;20028;-73
2023/05/06 08:46:32;;;;;;;4.82;2.63;;;;;;;;;;5084955;28;20074;-70
2023/05/06 08:48:58;;;;;;;6.15;2.80;;;;;;;;;;5085830;28;20458;-70
2023/05/06 08:51:28;;;;;;;3.58;2.42;;;;;;;;;;5080939;28;20523;-70
2023/05/06 08:53:53;;;;;;;4.50;2.70;;;;;;;;;;5081475;28;20116;-70
2023/05/06 08:56:20;;;;;;;4.85;2.80;;;;;;;;;;5084681;28;20123;-70
2023/05/06 08:58:47;;;;;;;4.45;2.58;;;;;;;;;;5079111;28;20036;-71
2023/05/06 09:01:14;;;;;;;3.30;2.50;;;;;;;;;;5080604;28;20520;-71
2023/05/06 09:03:40;;;;;;;5.40;2.65;;;;;;;;;;5082739;28;20031;-70
2023/05/06 09:06:05;;;;;;;4.57;2.10;;;;;;;;;;5072825;28;20123;-70
2023/05/06 09:08:30;;;;;;;2.47;1.55;;;;;;;;;;5081468;28;20111;-71
2023/05/06 09:10:56;;;;;;;3.85;2.00;;;;;;;;;;5083754;28;20578;-70
2023/05/06 09:13:21;;;;;;;5.13;2.55;;;;;;;;;;5083367;28;20439;-70
2023/05/06 09:15:48;;;;;;;4.68;2.45;;;;;;;;;;5083705;28;20032;-70
2023/05/06 09:18:14;;;;;;;5.50;2.38;;;;;;;;;;5071408;28;20028;-70
2023/05/06 09:20:43;;;;;;;2.20;1.65;;;;;;;;;;5078199;28;20041;-70
2023/05/06 09:23:10;;;;;;;4.95;2.08;;;;;;;;;;5082050;28;20067;-71
2023/05/06 09:25:36;;;;;;;2.78;1.77;;;;;;;;;;5078481;28;20058;-71
2023/05/06 09:28:11;;;;;;;4.03;2.10;;;;;;;;;;5074413;28;20044;-71
2023/05/06 09:30:42;;;;;;;3.00;1.90;;;;;;;;;;5082185;28;20516;-71
2023/05/06 09:33:07;;;;;;;5.15;1.80;;;;;;;;;;5069448;28;20687;-70
2023/05/06 09:35:38;;;;;;;5.07;2.30;;;;;;;;;;5080896;28;20035;-71
2023/05/06 09:38:04;;;;;;;6.05;2.40;;;;;;;;;;5087593;28;20110;-71
2023/05/06 09:40:29;;;;;;;5.35;2.33;;;;;;;;;;5072688;28;20098;-71
2023/05/06 09:42:55;;;;;;;6.40;2.30;;;;;;;;;;5084278;28;20043;-71
2023/05/06 09:45:21;;;;;;;7.18;2.10;;;;;;;;;;5087473;28;20031;-71
2023/05/06 09:47:48;;;;;;;4.65;2.30;;;;;;;;;;5078914;28;20086;-71
2023/05/06 09:50:15;;;;;;;4.20;2.03;;;;;;;;;;5077496;28;20052;-70
2023/05/06 09:52:43;;;;;;;3.70;1.90;;;;;;;;;;5069986;28;20979;-70
2023/05/06 09:55:09;;;;;;;7.53;2.22;;;;;;;;;;5085652;28;20088;-70
2023/05/06 09:57:37;;;;;;;3.80;1.83;;;;;;;;;;5082398;28;20050;-71
2023/05/06 10:00:05;;;;;;;2.95;1.75;;;;;;;;;;5069560;28;20052;-70
2023/05/06 10:02:30;;;;;;;6.15;2.97;;;;;;;;;;5072115;28;20059;-70
2023/05/06 10:04:57;;;;;;;3.30;1.60;;;;;;;;;;5068844;28;20398;-70
2023/05/06 10:07:24;;;;;;;3.97;1.40;;;;;;;;;;5082144;28;20095;-70
2023/05/06 10:09:50;;;;;;;3.45;1.30;;;;;;;;;;5074345;28;20058;-70
2023/05/06 10:12:17;;;;;;;1.77;1.40;;;;;;;;;;5069249;28;20028;-70
2023/05/06 10:14:42;;;;;;;1.30;1.20;;;;;;;;;;5076891;28;20103;-70
2023/05/06 10:17:08;;;;;;;2.22;1.50;;;;;;;;;;5083656;28;20110;-70
2023/05/06 10:19:35;;;;;;;3.40;1.60;;;;;;;;;;5080835;28;20047;-71
2023/05/06 10:22:10;;;;;;;4.97;1.77;;;;;;;;;;5072105;28;20135;-71
2023/05/06 10:24:48;;;;;;;3.88;1.60;;;;;;;;;;5073078;28;20043;-71
2023/05/06 10:27:17;;;;;;;5.18;1.48;;;;;;;;;;5067417;28;20028;-70
2023/05/06 10:29:43;;;;;;;3.63;1.63;;;;;;;;;;5070735;28;20103;-71
2023/05/06 10:32:09;;;;;;;2.85;1.70;;;;;;;;;;5071475;28;20134;-70
2023/05/06 10:34:40;;;;;;;4.10;1.60;;;;;;;;;;5083570;28;20448;-70
2023/05/06 10:37:08;;;;;;;3.50;1.40;;;;;;;;;;5084827;28;20665;-71
2023/05/06 10:39:33;;;;;;;4.00;1.63;;;;;;;;;;5074052;28;20043;-70
2023/05/06 10:42:00;;;;;;;3.38;1.70;;;;;;;;;;5075568;28;20418;-70
2023/05/06 10:44:57;;;;;;;3.75;1.50;;;;;;;;;;5085302;28;20047;-70
2023/05/06 10:47:22;;;;;;;2.03;1.52;;;;;;;;;;5086387;28;20089;-70
2023/05/06 10:50:23;;;;;;;2.60;1.40;;;;;;;;;;5069889;28;20036;-70
2023/05/06 10:52:51;;;;;;;2.55;1.38;;;;;;;;;;5075071;28;20047;-70
2023/05/06 10:55:35;;;;;;;2.75;1.25;;;;;;;;;;5085838;28;20035;-70
2023/05/06 10:58:09;;;;;;;2.90;1.40;;;;;;;;;;5085989;28;20036;-69
2023/05/06 11:00:35;;;;;;;3.92;1.63;;;;;;;;;;5084354;28;20043;-69
2023/05/06 11:03:02;;;;;;;2.70;1.48;;;;;;;;;;5087106;28;20020;-69
2023/05/06 11:05:28;;;;;;;3.90;1.70;;;;;;;;;;5086187;28;20046;-70
2023/05/06 11:08:09;;;;;;;3.97;1.85;;;;;;;;;;5079688;28;20044;-71
2023/05/06 11:10:36;;;;;;;4.03;1.80;;;;;;;;;;5074533;28;20052;-70
2023/05/06 11:13:20;;;;;;;2.75;1.50;;;;;;;;;;5075625;28;20040;-70
2023/05/06 11:15:46;;;;;;;3.35;1.35;;;;;;;;;;5069612;28;20075;-70
2023/05/06 11:18:40;;;;;;;5.50;1.77;;;;;;;;;;5071878;28;20658;-69
2023/05/06 11:21:05;;;;;;;3.90;1.70;;;;;;;;;;5068435;28;20047;-69
2023/05/06 11:23:48;;;;;;;4.07;1.90;;;;;;;;;;5080788;28;20016;-69
2023/05/06 11:26:14;;;;;;;4.18;1.80;;;;;;;;;;5085902;28;20054;-70
2023/05/06 11:28:43;;;;;;;5.10;1.50;;;;;;;;;;5078687;28;20048;-70
2023/05/06 11:31:10;;;;;;;4.78;2.10;;;;;;;;;;5070424;28;20040;-69
2023/05/06 11:33:36;;;;;;;6.15;2.17;;;;;;;;;;5079857;28;20043;-69
2023/05/06 11:36:03;;;;;;;3.42;1.52;;;;;;;;;;5079633;28;20024;-69
2023/05/06 11:38:48;;;;;;;6.47;1.70;;;;;;;;;;5085348;28;20108;-69
2023/05/06 11:41:15;;;;;;;2.95;1.60;;;;;;;;;;5073159;28;20043;-69
2023/05/06 11:43:45;;;;;;;5.28;1.73;;;;;;;;;;5079011;28;20398;-69
2023/05/06 11:46:11;;;;;;;9.07;1.58;;;;;;;;;;5070996;28;20428;-70
2023/05/06 11:48:36;;;;;;;3.25;1.50;;;;;;;;;;5075426;28;20506;-70
2023/05/06 11:51:01;;;;;;;5.72;1.73;;;;;;;;;;5078115;28;20113;-69
2023/05/06 11:53:28;;;;;;;3.58;1.40;;;;;;;;;;5064900;28;20072;-69
2023/05/06 11:55:54;;;;;;;2.08;1.35;;;;;;;;;;5067426;28;20028;-70
2023/05/06 11:58:29;;;;;;;3.15;1.40;;;;;;;;;;5084020;28;20046;-69
2023/05/06 12:01:00;;;;;;;3.10;1.60;;;;;;;;;;5071888;28;20536;-70
2023/05/06 12:03:27;;;;;;;4.60;1.60;;;;;;;;;;5081176;28;20512;-69
2023/05/06 12:05:53;;;;;;;4.93;1.70;;;;;;;;;;5065855;28;20565;-70
2023/05/06 12:08:30;;;;;;;2.17;1.45;;;;;;;;;;5097119;28;20125;-69
2023/05/06 12:11:05;;;;;;;3.85;1.55;;;;;;;;;;5082056;28;20123;-70
2023/05/06 12:13:33;;;;;;;4.03;1.77;;;;;;;;;;5063906;28;20040;-69
2023/05/06 12:16:00;;;;;;;3.67;1.60;;;;;;;;;;5067787;28;20177;-69
2023/05/06 12:18:26;;;;;;;4.40;1.80;;;;;;;;;;5068014;28;20055;-69
2023/05/06 12:20:55;;;;;;;3.45;1.40;;;;;;;;;;5074396;28;20032;-69
2023/05/06 12:23:21;;;;;;;3.72;1.40;;;;;;;;;;5077573;28;20039;-70
2023/05/06 12:25:59;;;;;;;5.05;1.67;;;;;;;;;;5076462;28;20390;-70
2023/05/06 12:28:25;;;;;;;4.10;1.70;;;;;;;;;;5068810;28;20597;-69
2023/05/06 12:30:51;;;;;;;2.65;1.50;;;;;;;;;;5068721;28;20037;-69
2023/05/06 12:33:17;;;;;;;7.00;2.28;;;;;;;;;;5079222;28;20027;-70
2023/05/06 12:35:42;;;;;;;3.33;1.60;;;;;;;;;;5073776;28;20028;-70
2023/05/06 12:38:08;;;;;;;4.68;1.50;;;;;;;;;;5074250;28;20032;-70
2023/05/06 12:40:34;;;;;;;4.10;1.80;;;;;;;;;;5081460;28;20040;-69
2023/05/06 12:43:00;;;;;;;7.07;1.77;;;;;;;;;;5085812;28;20032;-69
2023/05/06 12:45:25;;;;;;;5.70;1.70;;;;;;;;;;5083764;28;20050;-69
2023/05/06 12:47:55;;;;;;;4.75;1.55;;;;;;;;;;5074345;28;20024;-69
2023/05/06 12:50:33;;;;;;;5.35;1.60;;;;;;;;;;5075904;28;20048;-69
2023/05/06 12:52:58;;;;;;;4.28;1.50;;;;;;;;;;5072233;28;20813;-69
2023/05/06 12:55:26;;;;;;;5.07;1.92;;;;;;;;;;5078053;28;20131;-69
2023/05/06 12:57:52;;;;;;;5.18;1.42;;;;;;;;;;5077009;28;20037;-69
2023/05/06 13:00:18;;;;;;;3.67;1.63;;;;;;;;;;5078486;28;20048;-69
2023/05/06 13:02:44;;;;;;;3.55;1.00;;;;;;;;;;5069572;28;20115;-69
2023/05/06 13:05:10;;;;;;;9.18;1.50;;;;;;;;;;5074552;28;20047;-69
2023/05/06 13:07:35;;;;;;;7.88;1.67;;;;;;;;;;5077595;28;20040;-69
2023/05/06 13:10:02;;;;;;;2.72;1.35;;;;;;;;;;5069443;28;20067;-69
2023/05/06 13:12:28;;;;;;;4.45;1.50;;;;;;;;;;5067024;28;20416;-70
2023/05/06 13:14:53;;;;;;;6.78;2.40;;;;;;;;;;5064777;28;20024;-69
2023/05/06 13:17:19;;;;;;;4.53;1.90;;;;;;;;;;5065250;28;20074;-70
2023/05/06 13:19:44;;;;;;;5.57;1.95;;;;;;;;;;5078398;28;20048;-69
2023/05/06 13:22:09;;;;;;;5.57;1.58;;;;;;;;;;5084411;28;20533;-70
2023/05/06 13:24:35;;;;;;;4.47;1.88;;;;;;;;;;5086205;28;20032;-70
2023/05/06 13:27:01;;;;;;;4.47;1.60;;;;;;;;;;5078671;28;20719;-70
2023/05/06 13:29:27;;;;;;;7.57;2.00;;;;;;;;;;5086907;28;20068;-69
2023/05/06 13:31:53;;;;;;;6.55;2.03;;;;;;;;;;5082225;28;20032;-70
2023/05/06 13:34:18;;;;;;;4.38;1.38;;;;;;;;;;5080593;28;20127;-70
2023/05/06 13:36:45;;;;;;;6.47;1.73;;;;;;;;;;5078397;28;20169;-70
2023/05/06 13:39:10;;;;;;;3.42;1.40;;;;;;;;;;5083394;28;20031;-70
2023/05/06 13:41:36;;;;;;;6.38;1.98;;;;;;;;;;5086865;28;20024;-70
2023/05/06 13:44:02;;;;;;;4.75;1.90;;;;;;;;;;5072963;28;20032;-71
2023/05/06 13:46:27;;;;;;;4.93;1.80;;;;;;;;;;5081065;28;20032;-70
2023/05/06 13:48:53;;;;;;;4.50;1.40;;;;;;;;;;5088911;28;20028;-70
2023/05/06 13:51:18;;;;;;;7.53;1.90;;;;;;;;;;5088640;28;20493;-70
2023/05/06 13:53:43;;;;;;;5.00;1.90;;;;;;;;;;5088086;28;20125;-70
2023/05/06 13:56:09;;;;;;;3.05;1.25;;;;;;;;;;5087957;28;20043;-70
2023/05/06 13:58:34;;;;;;;5.28;1.60;;;;;;;;;;5088499;28;20139;-70
2023/05/06 14:01:00;;;;;;;5.78;1.75;;;;;;;;;;5087392;28;20036;-70
2023/05/06 14:03:26;;;;;;;3.42;1.60;;;;;;;;;;5088380;28;20039;-69
2023/05/06 14:05:51;;;;;;;4.88;1.80;;;;;;;;;;5088495;28;20020;-70
2023/05/06 14:08:16;;;;;;;9.43;2.42;;;;;;;;;;5065823;28;20086;-71
2023/05/06 14:10:42;;;;;;;5.45;1.90;;;;;;;;;;5084315;28;20032;-72
2023/05/06 14:13:07;;;;;;;3.08;1.77;;;;;;;;;;5078396;28;20032;-71
2023/05/06 14:15:33;;;;;;;3.97;1.98;;;;;;;;;;5078639;28;20453;-71
2023/05/06 14:17:58;;;;;;;7.82;2.53;;;;;;;;;;5083767;28;20043;-71
2023/05/06 14:20:24;;;;;;;6.03;2.00;;;;;;;;;;5089000;28;20039;-71
2023/05/06 14:22:49;;;;;;;4.95;1.77;;;;;;;;;;5080952;28;20031;-72
2023/05/06 14:25:15;;;;;;;4.95;1.80;;;;;;;;;;5098015;28;20475;-71
2023/05/06 14:27:40;;;;;;;25.77;5.32;;;;;;;;;;5088925;28;20055;-71
2023/05/06 14:30:07;;;;;;;8.10;2.20;;;;;;;;;;5083244;28;20065;-71
2023/05/06 14:32:32;;;;;;;6.05;2.42;;;;;;;;;;5071847;28;20017;-71
2023/05/06 14:34:58;;;;;;;7.10;1.95;;;;;;;;;;5074270;28;20047;-71
2023/05/06 14:37:23;;;;;;;5.90;2.20;;;;;;;;;;5081993;28;20041;-71
2023/05/06 14:39:49;;;;;;;6.13;2.10;;;;;;;;;;5088028;28;20039;-71
2023/05/06 14:42:14;;;;;;;5.43;1.90;;;;;;;;;;5085146;28;20450;-71